Carson, CA (90895)

3:14 PM PDT on July 26, 2016 (GMT -0700)
Green Meadows | | Change Station

Elev 66 ft 33.81 °N, 118.30 °W | Updated 6 minutes ago

Scattered Clouds
Scattered Clouds
82.6 °F
Feels Like 85 °F
N
6.8
Wind Variable Wind from WSW

Today
High -- | Low -- °F
--% Chance of Precip.
Yesterday
High -- | Low -- °F
Precip. -- in
Pressure 29.86 in
Visibility 10.0 miles
Clouds Few 1000 ft
Scattered Clouds 14000 ft
Heat Index 85 °F
Dew Point 66 °F
Humidity 57%
Rainfall 0.00 in
Snow Depth Not available.
6:01 AM 7:57 PM
Waning Gibbous, 50% visible
METAR KTOA 262152Z 29010KT 10SM FEW010 SCT140 27/20 A2986 RMK ST W
Pressure 29.86 in
Visibility 10.0 miles
Clouds Few 1000 ft
Scattered Clouds 14000 ft
Heat Index 85 °F
Dew Point 66 °F
Humidity 57%
Rainfall 0.00 in
Snow Depth Not available.
6:01 AM 7:57 PM
Waning Gibbous, 50% visible
METAR KTOA 262152Z 29010KT 10SM FEW010 SCT140 27/20 A2986 RMK ST W

10-Day Weather Forecast

Almanac

Astronomy

Jul. 26, 2016 Rise Set
Actual Time
Civil Twilight
Nautical Twilight
Astronomical Twilight
Moon
Length of Visible Light
Length of Day
Tomorrow will be .
, % of the Moon is Illuminated

Today's Extremes

State Highs State Lows

Community

WunderPhotos

Upload Photos

1,927,702 photos uploaded!

WunderBlog® & News

Nearby

Air Quality

  Air Quality AQ Index Pollutant
Not available.

Snow Depth

Station Depth Elevation

Earthquake Activity

City Distance Mag. Time & Date
Minimum magnitude displayed is 2.5.

Coastal Water Temperatures

Place Temperature

Stations

Nearby Weather Stations

Station Location Temp. Windchill Dew Point Humidity Wind Precip. Elev Updated Type
                   

Watches & Warnings

There are currently no watches in effect.